Time;durP1;ratioP1;P1;durP2;ratioP2;P2;SDS_P1;SDS_P2;PMS_P1;PMS_P2;Temp;Humidity;BMP_temperature;BMP_pressure;BME280_temperature;BME280_humidity;BME280_pressure;Samples;Min_cycle;Max_cycle;Signal;HPM_P1;HPM_P2
2021/08/07 00:02:18;;;;;;;7.45;5.78;;;;;;;17.67;100.00;99081.23;1755683;81;21021;-79
2021/08/07 00:04:48;;;;;;;11.20;8.80;;;;;;;17.67;100.00;99083.44;1755826;81;21829;-78
2021/08/07 00:07:16;;;;;;;16.85;11.00;;;;;;;17.68;100.00;99083.78;1755856;81;21001;-77
2021/08/07 00:09:43;;;;;;;13.48;9.30;;;;;;;17.70;100.00;99092.48;1755683;81;22219;-79
2021/08/07 00:12:10;;;;;;;18.25;12.00;;;;;;;17.71;100.00;99106.14;1755653;81;21014;-80
2021/08/07 00:14:38;;;;;;;13.98;10.98;;;;;;;17.73;100.00;99110.86;1755639;81;21116;-78
2021/08/07 00:17:07;;;;;;;12.43;9.78;;;;;;;17.73;100.00;99122.84;1719771;81;21033;-78
2021/08/07 00:19:36;;;;;;;23.02;13.22;;;;;;;17.76;100.00;99122.61;1717670;83;21017;-79
2021/08/07 00:22:05;;;;;;;22.82;11.63;;;;;;;17.75;100.00;99119.57;1717618;83;21045;-76
2021/08/07 00:24:32;;;;;;;16.90;12.53;;;;;;;17.75;100.00;99130.22;1717618;83;21061;-76
2021/08/07 00:26:59;;;;;;;21.62;11.93;;;;;;;17.77;100.00;99130.94;1748114;81;22190;-76
2021/08/07 00:29:26;;;;;;;12.47;9.00;;;;;;;17.75;100.00;99132.89;1768072;81;21123;-76
2021/08/07 00:31:53;;;;;;;21.82;12.85;;;;;;;17.79;100.00;99130.83;1768230;81;21108;-76
2021/08/07 00:34:20;;;;;;;11.65;9.40;;;;;;;17.80;100.00;99132.50;1768267;81;21505;-77
2021/08/07 00:36:49;;;;;;;16.32;9.15;;;;;;;17.79;100.00;99131.66;1768147;81;21056;-77
2021/08/07 00:39:16;;;;;;;18.77;11.15;;;;;;;17.84;100.00;99127.81;1767724;81;21099;-76
2021/08/07 00:41:43;;;;;;;18.92;10.88;;;;;;;17.82;100.00;99131.44;1768594;81;21532;-76
2021/08/07 00:44:10;;;;;;;18.05;13.60;;;;;;;17.81;100.00;99137.75;1750894;81;21084;-75
2021/08/07 00:46:39;;;;;;;20.05;13.20;;;;;;;17.77;100.00;99144.26;1732371;82;22161;-76
2021/08/07 00:49:07;;;;;;;18.55;12.58;;;;;;;17.74;100.00;99152.52;1732429;82;21599;-76
2021/08/07 00:51:34;;;;;;;17.40;11.78;;;;;;;17.74;100.00;99147.19;1739209;82;21061;-76
2021/08/07 00:54:05;;;;;;;12.05;9.08;;;;;;;17.68;100.00;99157.00;1718262;83;21614;-76
2021/08/07 00:56:32;;;;;;;15.45;11.25;;;;;;;17.68;100.00;99157.49;1725845;83;21120;-77
2021/08/07 00:59:06;;;;;;;17.92;11.60;;;;;;;17.67;100.00;99157.98;1725209;83;21566;-78
2021/08/07 01:01:44;;;;;;;12.00;7.83;;;;;;;17.62;100.00;99153.50;1725658;83;21017;-78
2021/08/07 01:04:21;;;;;;;21.60;12.05;;;;;;;17.64;100.00;99153.38;1725189;83;21088;-77
2021/08/07 01:07:00;;;;;;;21.73;11.57;;;;;;;17.64;100.00;99154.22;1725254;83;21084;-79
2021/08/07 01:10:01;;;;;;;12.43;8.70;;;;;;;17.61;100.00;99155.81;1725508;83;21065;-78
2021/08/07 01:12:52;;;;;;;18.32;11.65;;;;;;;17.61;100.00;99153.15;1725178;83;21671;-79
2021/08/07 01:15:27;;;;;;;13.30;11.83;;;;;;;17.60;100.00;99155.47;1725679;83;21096;-78
2021/08/07 01:17:54;;;;;;;16.50;10.00;;;;;;;17.55;100.00;99158.96;1722388;83;22240;-78
2021/08/07 01:20:28;;;;;;;16.33;11.47;;;;;;;17.52;100.00;99155.23;1725433;83;21045;-79
2021/08/07 01:23:19;;;;;;;16.62;11.53;;;;;;;17.49;100.00;99166.98;1725443;83;21081;-78
2021/08/07 01:26:09;;;;;;;10.08;7.12;;;;;;;17.37;100.00;99166.16;1725215;83;21172;-77
2021/08/07 01:28:40;;;;;;;13.50;11.57;;;;;;;17.34;100.00;99171.70;1724946;83;21085;-78
2021/08/07 01:31:08;;;;;;;21.80;12.78;;;;;;;17.30;100.00;99175.61;1731117;81;21108;-79
2021/08/07 01:33:35;;;;;;;23.18;12.70;;;;;;;17.28;100.00;99174.88;1704523;81;21592;-78
2021/08/07 01:36:04;;;;;;;23.05;12.60;;;;;;;17.27;100.00;99170.51;1754824;81;21057;-77
2021/08/07 01:38:32;;;;;;;18.35;12.00;;;;;;;17.26;100.00;99174.15;1755403;81;21186;-79
2021/08/07 01:41:01;;;;;;;18.00;12.30;;;;;;;17.26;100.00;99176.81;1755250;81;21548;-80
2021/08/07 01:43:31;;;;;;;20.62;12.58;;;;;;;17.26;100.00;99171.48;1727839;81;22026;-81
2021/08/07 01:46:00;;;;;;;11.12;7.78;;;;;;;17.27;100.00;99178.48;1755700;81;21100;-81
2021/08/07 01:48:42;;;;;;;14.58;9.30;;;;;;;17.27;100.00;99172.33;1755018;81;21005;-81
2021/08/07 01:51:22;;;;;;;23.62;10.85;;;;;;;17.25;100.00;99175.10;1752157;81;21125;-81
2021/08/07 01:53:52;;;;;;;18.15;8.33;;;;;;;17.17;100.00;99174.88;1736376;82;21833;-80
2021/08/07 01:56:32;;;;;;;13.10;10.13;;;;;;;17.15;100.00;99179.48;1712286;83;21529;-80
2021/08/07 01:59:08;;;;;;;15.50;8.98;;;;;;;17.13;100.00;99176.09;1712058;83;21081;-80
2021/08/07 02:01:38;;;;;;;12.25;7.72;;;;;;;17.08;100.00;99178.27;1712324;83;21048;-79
2021/08/07 02:04:06;;;;;;;14.73;8.35;;;;;;;17.06;100.00;99185.53;1662047;83;21556;-81
2021/08/07 02:06:35;;;;;;;12.50;8.23;;;;;;;17.03;100.00;99188.44;1713051;83;21627;-80
2021/08/07 02:09:04;;;;;;;10.05;7.37;;;;;;;16.99;100.00;99183.34;1713029;83;21041;-80
2021/08/07 02:11:33;;;;;;;14.40;8.40;;;;;;;16.98;100.00;99181.66;1711011;83;21074;-79
2021/08/07 02:14:03;;;;;;;9.95;6.65;;;;;;;16.99;100.00;99188.66;1713549;83;21679;-80
2021/08/07 02:16:30;;;;;;;11.57;7.40;;;;;;;16.98;100.00;99184.32;1713374;83;21125;-78
2021/08/07 02:19:00;;;;;;;9.83;7.05;;;;;;;16.97;100.00;99186.59;1713734;83;21053;-81
2021/08/07 02:21:29;;;;;;;9.90;5.90;;;;;;;16.94;100.00;99190.84;1714002;83;21553;-79
2021/08/07 02:23:56;;;;;;;9.68;6.87;;;;;;;16.95;100.00;99192.52;1717335;78;21077;-80
2021/08/07 02:26:25;;;;;;;14.35;6.55;;;;;;;16.93;100.00;99201.13;1717053;81;21035;-78
2021/08/07 02:28:59;;;;;;;11.38;6.85;;;;;;;16.91;100.00;99208.37;1690173;82;21139;-76
2021/08/07 02:31:29;;;;;;;9.20;6.85;;;;;;;16.90;100.00;99212.47;1713110;83;21002;-78
2021/08/07 02:33:56;;;;;;;11.35;5.60;;;;;;;16.88;100.00;99209.92;1712333;83;21109;-77
2021/08/07 02:36:23;;;;;;;10.00;6.92;;;;;;;16.87;100.00;99214.05;1712082;83;21045;-77
2021/08/07 02:38:53;;;;;;;10.90;4.83;;;;;;;16.88;100.00;99217.06;1712106;83;21133;-77
2021/08/07 02:41:21;;;;;;;10.75;6.25;;;;;;;16.87;100.00;99220.21;1712159;83;22037;-77
2021/08/07 02:43:48;;;;;;;12.85;6.92;;;;;;;16.86;100.00;99227.80;1713133;81;21115;-79
2021/08/07 02:46:17;;;;;;;8.10;6.10;;;;;;;16.85;100.00;99222.14;1711807;82;21118;-78
2021/08/07 02:48:44;;;;;;;9.80;6.78;;;;;;;16.85;100.00;99227.95;1712234;83;21060;-78
2021/08/07 02:51:12;;;;;;;9.00;6.60;;;;;;;16.85;100.00;99228.78;1712626;83;21161;-77
2021/08/07 02:53:41;;;;;;;10.32;5.55;;;;;;;16.84;100.00;99228.89;1723919;83;21151;-77
2021/08/07 02:56:11;;;;;;;10.95;6.70;;;;;;;16.83;100.00;99232.05;1725200;83;21507;-78
2021/08/07 02:58:41;;;;;;;6.17;5.53;;;;;;;16.84;100.00;99237.74;1725119;83;21101;-78
2021/08/07 03:01:09;;;;;;;10.55;5.78;;;;;;;16.83;100.00;99243.17;1738395;81;21069;-77
2021/08/07 03:03:36;;;;;;;9.38;5.92;;;;;;;16.82;100.00;99238.34;1755174;81;21096;-77
2021/08/07 03:06:04;;;;;;;8.55;5.53;;;;;;;16.81;100.00;99240.62;1754881;81;22348;-76
2021/08/07 03:08:31;;;;;;;6.80;5.70;;;;;;;16.82;100.00;99250.77;1755310;81;21132;-76
2021/08/07 03:11:00;;;;;;;8.28;5.95;;;;;;;16.82;100.00;99247.64;1754960;81;21128;-75
2021/08/07 03:13:29;;;;;;;7.10;4.97;;;;;;;16.80;100.00;99254.89;1755223;81;21520;-75
2021/08/07 03:15:56;;;;;;;10.28;5.92;;;;;;;16.81;100.00;99253.91;1755243;81;21049;-76
2021/08/07 03:18:25;;;;;;;8.95;4.58;;;;;;;16.82;100.00;99254.30;1754719;81;21155;-75
2021/08/07 03:20:57;;;;;;;7.80;4.42;;;;;;;16.81;100.00;99255.23;1755332;81;21053;-78
2021/08/07 03:23:23;;;;;;;7.60;5.58;;;;;;;16.83;100.00;99262.63;1755547;81;21330;-79
2021/08/07 03:25:53;;;;;;;11.95;4.78;;;;;;;16.84;100.00;99264.33;1755097;81;21032;-76
2021/08/07 03:28:21;;;;;;;10.63;6.15;;;;;;;16.87;100.00;99269.41;1755026;81;21139;-76
2021/08/07 03:30:49;;;;;;;7.35;5.15;;;;;;;16.97;100.00;99270.87;1728459;81;21098;-77
2021/08/07 03:33:17;;;;;;;7.08;5.05;;;;;;;17.11;99.54;99276.45;1745515;81;21073;-80
2021/08/07 03:35:44;;;;;;;8.85;5.12;;;;;;;17.27;99.79;99270.29;1755770;81;21072;-79
2021/08/07 03:38:12;;;;;;;8.18;4.50;;;;;;;17.44;99.38;99266.78;1755182;81;21049;-75
2021/08/07 03:40:38;;;;;;;10.55;5.30;;;;;;;17.57;98.47;99266.17;1744441;81;21052;-75
2021/08/07 03:43:07;;;;;;;7.58;5.72;;;;;;;17.77;98.46;99270.75;1751019;81;21133;-75
2021/08/07 03:45:35;;;;;;;7.20;4.58;;;;;;;17.99;96.62;99267.23;1753836;80;21053;-75
2021/08/07 03:48:03;;;;;;;6.95;4.97;;;;;;;18.17;94.36;99265.35;1754528;80;21117;-76
2021/08/07 03:50:35;;;;;;;5.25;4.75;;;;;;;18.29;94.53;99272.81;1750704;81;21610;-76
2021/08/07 03:53:03;;;;;;;6.10;4.87;;;;;;;18.41;91.58;99271.82;1746645;81;21024;-77
2021/08/07 03:55:30;;;;;;;7.00;4.85;;;;;;;18.57;92.12;99282.89;1685901;84;21161;-76
2021/08/07 03:57:59;;;;;;;7.75;4.78;;;;;;;18.78;91.03;99280.77;1685726;84;21102;-77
2021/08/07 04:00:34;;;;;;;6.95;4.58;;;;;;;19.04;89.85;99287.38;1713635;83;21046;-77
2021/08/07 04:03:02;;;;;;;6.58;4.47;;;;;;;19.19;87.95;99289.73;1688391;84;21085;-76
2021/08/07 04:05:28;;;;;;;4.30;3.90;;;;;;;19.26;86.84;99290.89;1690532;84;21053;-77
2021/08/07 04:08:05;;;;;;;7.25;4.10;;;;;;;19.29;85.87;99291.45;1691839;83;21101;-76
2021/08/07 04:10:34;;;;;;;5.53;4.08;;;;;;;19.44;84.87;99285.75;1699067;83;21572;-76
2021/08/07 04:13:02;;;;;;;7.30;4.37;;;;;;;19.70;83.47;99278.17;1719060;83;21053;-76
2021/08/07 04:15:29;;;;;;;6.92;4.45;;;;;;;19.99;82.09;99284.94;1694251;83;21098;-76
2021/08/07 04:17:57;;;;;;;6.37;4.33;;;;;;;20.35;80.21;99280.40;1702967;83;21113;-76
2021/08/07 04:20:23;;;;;;;7.30;4.72;;;;;;;20.67;77.53;99275.63;1699917;83;21121;-77
2021/08/07 04:22:54;;;;;;;7.83;4.65;;;;;;;21.02;76.92;99275.50;1716268;83;21081;-75
2021/08/07 04:25:22;;;;;;;4.53;3.70;;;;;;;21.30;75.28;99287.61;1714312;83;20983;-76
2021/08/07 04:27:49;;;;;;;5.15;3.72;;;;;;;21.60;73.58;99280.34;1710262;83;21535;-76
2021/08/07 04:30:18;;;;;;;3.50;3.20;;;;;;;21.93;71.49;99286.45;1710771;83;21116;-77
2021/08/07 04:32:46;;;;;;;4.35;3.55;;;;;;;22.28;68.40;99292.05;1707286;83;21114;-78
2021/08/07 04:35:13;;;;;;;4.47;3.47;;;;;;;22.62;67.66;99298.91;1708695;83;21053;-76
2021/08/07 04:37:53;;;;;;;5.42;4.10;;;;;;;22.91;65.61;99294.59;1717358;83;21604;-77
2021/08/07 04:40:24;;;;;;;4.12;3.30;;;;;;;23.19;64.66;99290.45;1699097;84;21054;-77
2021/08/07 04:42:51;;;;;;;4.42;3.33;;;;;;;23.51;62.04;99291.65;1706017;83;21120;-77
2021/08/07 04:45:19;;;;;;;3.75;2.80;;;;;;;23.73;60.18;99295.13;1703066;83;21138;-76
2021/08/07 04:47:56;;;;;;;5.17;3.42;;;;;;;23.91;58.01;99293.72;1673501;85;21108;-79
2021/08/07 04:50:28;;;;;;;3.00;2.60;;;;;;;24.10;58.58;99295.78;1697577;83;21096;-77
2021/08/07 04:52:55;;;;;;;4.28;2.90;;;;;;;24.22;56.14;99296.64;1681100;84;22227;-76
2021/08/07 04:55:22;;;;;;;4.10;2.80;;;;;;;24.31;55.40;99289.95;1714982;82;21102;-78
2021/08/07 04:57:49;;;;;;;5.00;2.70;;;;;;;24.42;55.44;99283.73;1734706;82;21281;-78
2021/08/07 05:00:17;;;;;;;6.05;2.60;;;;;;;24.58;54.19;99290.19;1733819;82;21091;-77
2021/08/07 05:02:47;;;;;;;5.28;2.40;;;;;;;24.77;54.30;99289.84;1733903;82;21002;-78
2021/08/07 05:05:16;;;;;;;3.52;2.33;;;;;;;24.99;53.25;99288.32;1733796;82;26613;-78
2021/08/07 05:07:45;;;;;;;4.43;2.50;;;;;;;25.06;51.24;99284.45;1734098;82;20999;-78
2021/08/07 05:10:12;;;;;;;2.75;2.50;;;;;;;25.01;52.10;99286.30;1733868;82;22135;-78
2021/08/07 05:12:39;;;;;;;3.98;2.58;;;;;;;25.06;51.29;99281.75;1724197;82;21030;-77
2021/08/07 05:15:07;;;;;;;4.40;2.67;;;;;;;25.26;51.83;99283.58;1696701;82;21098;-78
2021/08/07 05:17:36;;;;;;;3.10;2.30;;;;;;;25.55;51.19;99274.91;1704434;83;21079;-78
2021/08/07 05:20:07;;;;;;;4.72;2.85;;;;;;;25.78;49.96;99274.15;1704511;84;21107;-78
2021/08/07 05:22:35;;;;;;;3.67;2.67;;;;;;;25.77;50.04;99268.41;1705117;82;21800;-77
2021/08/07 05:25:06;;;;;;;3.60;2.20;;;;;;;25.99;50.09;99256.86;1704285;84;21115;-78
2021/08/07 05:27:34;;;;;;;3.58;2.60;;;;;;;26.24;48.46;99260.77;1704774;84;21030;-79
2021/08/07 05:30:05;;;;;;;4.12;2.25;;;;;;;26.34;48.36;99255.96;1708634;82;21070;-77
2021/08/07 05:32:33;;;;;;;2.35;1.95;;;;;;;26.50;47.01;99261.27;1704632;84;21545;-80
2021/08/07 05:35:00;;;;;;;2.80;2.45;;;;;;;26.58;47.29;99261.22;1704234;84;21525;-79
2021/08/07 05:37:27;;;;;;;4.87;2.15;;;;;;;26.75;46.72;99266.47;1704438;84;21074;-77
2021/08/07 05:39:55;;;;;;;5.25;2.47;;;;;;;26.98;46.07;99269.13;1704449;84;21092;-77
2021/08/07 05:42:23;;;;;;;4.30;2.00;;;;;;;27.25;45.59;99273.12;1708324;82;21565;-78
2021/08/07 05:44:49;;;;;;;3.40;2.37;;;;;;;27.41;44.33;99278.34;1716706;82;21074;-77
2021/08/07 05:47:17;;;;;;;3.70;2.05;;;;;;;27.40;43.96;99284.79;1714090;82;21145;-79
2021/08/07 05:49:47;;;;;;;4.03;2.30;;;;;;;27.49;44.21;99292.79;1718125;82;21050;-79
2021/08/07 05:52:15;;;;;;;2.87;1.92;;;;;;;27.67;43.29;99289.19;1714414;82;21486;-77
2021/08/07 05:54:43;;;;;;;3.62;2.30;;;;;;;27.80;43.20;99295.30;1716148;82;21093;-79
2021/08/07 05:57:11;;;;;;;4.97;2.20;;;;;;;27.89;43.30;99287.95;1707590;82;21082;-78
2021/08/07 05:59:38;;;;;;;3.65;2.50;;;;;;;28.06;42.33;99288.05;1704711;82;21127;-78
2021/08/07 06:02:05;;;;;;;2.47;2.17;;;;;;;28.03;42.75;99292.50;1725504;82;21026;-78
2021/08/07 06:04:32;;;;;;;3.05;1.67;;;;;;;28.01;41.60;99289.14;1718237;83;21042;-78
2021/08/07 06:07:01;;;;;;;3.58;1.70;;;;;;;28.14;41.06;99293.36;1719541;82;21077;-79
2021/08/07 06:09:30;;;;;;;3.35;2.00;;;;;;;28.14;41.75;99302.00;1719641;82;21653;-78
2021/08/07 06:11:57;;;;;;;3.90;2.08;;;;;;;28.18;41.48;99306.84;1699713;82;21343;-79
2021/08/07 06:14:24;;;;;;;5.20;2.05;;;;;;;28.31;42.08;99295.30;1698726;84;21510;-79
2021/08/07 06:16:53;;;;;;;2.00;1.77;;;;;;;28.51;41.18;99287.42;1698512;84;21058;-79
2021/08/07 06:19:20;;;;;;;6.60;2.58;;;;;;;28.73;40.82;99291.47;1698786;84;21506;-79
2021/08/07 06:21:48;;;;;;;7.97;2.20;;;;;;;29.04;40.60;99298.72;1699104;84;21077;-78
2021/08/07 06:24:15;;;;;;;2.85;2.05;;;;;;;29.21;39.27;99298.45;1699113;84;21510;-81
2021/08/07 06:26:43;;;;;;;7.97;2.15;;;;;;;28.96;38.69;99300.73;1707898;82;21532;-78
2021/08/07 06:29:12;;;;;;;3.72;1.82;;;;;;;28.61;39.48;99294.70;1733937;82;21003;-77
2021/08/07 06:31:39;;;;;;;2.92;1.80;;;;;;;28.48;39.73;99301.33;1734487;82;21062;-78
2021/08/07 06:34:08;;;;;;;3.10;1.87;;;;;;;28.62;40.39;99297.75;1734147;82;21077;-80
2021/08/07 06:36:36;;;;;;;6.22;2.47;;;;;;;28.82;39.45;99288.95;1722447;82;21095;-79
2021/08/07 06:39:04;;;;;;;5.28;2.00;;;;;;;29.11;39.06;99295.27;1704542;84;21093;-78
2021/08/07 06:41:32;;;;;;;3.42;1.90;;;;;;;29.32;38.76;99297.08;1712797;82;21066;-80
2021/08/07 06:44:06;;;;;;;10.30;2.12;;;;;;;29.45;38.31;99292.58;1720069;81;21056;-79
2021/08/07 06:46:35;;;;;;;2.50;1.95;;;;;;;29.52;37.74;99285.84;1757034;81;21061;-79
2021/08/07 06:49:02;;;;;;;2.40;1.82;;;;;;;29.39;37.37;99285.23;1708675;81;21120;-79
2021/08/07 06:51:29;;;;;;;2.45;1.50;;;;;;;29.47;36.99;99293.22;1721698;82;21096;-80
2021/08/07 06:53:56;;;;;;;3.35;1.67;;;;;;;29.40;37.65;99289.63;1728259;82;21073;-78
2021/08/07 06:56:23;;;;;;;3.83;1.90;;;;;;;29.16;37.67;99294.15;1697190;84;21707;-79
2021/08/07 06:58:50;;;;;;;3.15;1.80;;;;;;;29.25;37.93;99288.89;1697938;84;21738;-79
2021/08/07 07:01:18;;;;;;;2.90;1.87;;;;;;;29.32;36.60;99291.13;1710235;83;21130;-79
2021/08/07 07:03:46;;;;;;;4.00;1.72;;;;;;;29.01;37.10;99289.64;1731915;82;21237;-78
2021/08/07 07:06:13;;;;;;;4.83;1.42;;;;;;;28.74;37.68;99294.52;1740473;82;21053;-78
2021/08/07 07:08:41;;;;;;;2.15;1.70;;;;;;;28.41;37.80;99292.27;1739269;81;21727;-79
2021/08/07 07:11:08;;;;;;;4.00;1.80;;;;;;;27.69;38.72;99303.89;1735198;82;21051;-79
2021/08/07 07:13:37;;;;;;;2.00;1.70;;;;;;;27.45;39.92;99305.86;1713027;83;21531;-78
2021/08/07 07:16:05;;;;;;;3.33;2.12;;;;;;;27.35;39.79;99302.57;1701585;83;22316;-78
2021/08/07 07:18:34;;;;;;;5.08;1.60;;;;;;;27.57;40.31;99302.17;1688124;83;21672;-77
2021/08/07 07:21:02;;;;;;;1.85;1.60;;;;;;;27.95;39.51;99302.06;1709886;83;21065;-84
2021/08/07 07:23:30;;;;;;;4.28;1.65;;;;;;;28.20;38.59;99318.29;1709797;83;21623;-78
2021/08/07 07:25:58;;;;;;;4.33;1.65;;;;;;;28.24;38.28;99319.59;1709910;83;21141;-79
2021/08/07 07:28:25;;;;;;;3.60;1.70;;;;;;;28.22;37.75;99324.35;1709936;83;21103;-79
2021/08/07 07:30:52;;;;;;;2.58;1.72;;;;;;;28.17;38.12;99329.50;1710182;83;21094;-82
2021/08/07 07:33:20;;;;;;;3.05;1.60;;;;;;;28.27;38.07;99327.02;1709736;83;21058;-80
2021/08/07 07:35:47;;;;;;;5.10;1.98;;;;;;;28.39;38.10;99330.40;1709924;83;21560;-80
2021/08/07 07:38:14;;;;;;;4.22;1.57;;;;;;;28.58;37.77;99325.41;1719719;83;21568;-80
2021/08/07 07:40:42;;;;;;;3.25;1.70;;;;;;;28.59;37.79;99327.91;1710238;83;21565;-79
2021/08/07 07:43:10;;;;;;;6.53;2.20;;;;;;;28.63;37.00;99327.84;1707245;83;21081;-81
2021/08/07 07:45:37;;;;;;;2.75;1.60;;;;;;;28.58;37.54;99324.89;1712947;83;21078;-81
2021/08/07 07:48:06;;;;;;;4.42;2.12;;;;;;;28.51;37.21;99323.16;1709635;83;21194;-78
2021/08/07 07:50:33;;;;;;;4.05;1.90;;;;;;;28.62;38.35;99322.13;1711887;83;21114;-82
2021/08/07 07:53:01;;;;;;;5.10;2.20;;;;;;;28.90;37.49;99326.76;1711737;82;21038;-82
2021/08/07 07:55:30;;;;;;;2.85;1.82;;;;;;;29.11;37.08;99333.22;1714325;82;21064;-81
2021/08/07 07:58:00;;;;;;;3.45;1.87;;;;;;;29.28;36.66;99326.45;1732000;81;21066;-87
2021/08/07 08:00:29;;;;;;;3.63;1.67;;;;;;;29.61;35.82;99329.40;1727911;78;21109;-87
2021/08/07 08:02:56;;;;;;;4.00;1.85;;;;;;;29.64;35.47;99331.70;1724659;80;21107;-87
2021/08/07 08:05:34;;;;;;;3.80;1.72;;;;;;;29.67;36.10;99334.53;1726278;78;21219;-88
2021/08/07 08:08:03;;;;;;;2.20;2.00;;;;;;;29.76;35.63;99334.72;1724415;77;21026;-86
2021/08/07 08:10:31;;;;;;;5.62;2.10;;;;;;;29.90;34.93;99355.98;1727183;77;20983;-88
2021/08/07 08:12:58;;;;;;;3.42;1.90;;;;;;;29.65;34.71;99348.81;1719343;82;21123;-88
2021/08/07 08:15:26;;;;;;;2.95;1.75;;;;;;;29.24;34.85;99346.86;1716664;82;21152;-85
2021/08/07 08:17:52;;;;;;;2.45;1.90;;;;;;;28.88;32.91;99358.63;1730586;82;21046;-86
2021/08/07 08:20:20;;;;;;;8.10;2.47;;;;;;;28.58;33.79;99348.44;1723833;82;21059;-88
2021/08/07 08:22:49;;;;;;;4.70;2.33;;;;;;;28.19;34.51;99354.52;1728343;82;21545;-83
2021/08/07 08:25:18;;;;;;;4.30;2.25;;;;;;;27.77;36.21;99360.09;1712206;82;21553;-86
2021/08/07 08:27:48;;;;;;;5.50;2.52;;;;;;;27.79;35.97;99351.28;1734708;82;21080;-86
2021/08/07 08:30:15;;;;;;;2.35;2.10;;;;;;;28.21;35.67;99347.58;1715773;82;21550;-81
2021/08/07 08:32:42;;;;;;;10.10;3.30;;;;;;;28.66;33.78;99348.30;1716975;82;21093;-80
2021/08/07 08:35:10;;;;;;;5.00;2.08;;;;;;;28.51;33.81;99348.88;1720173;82;21059;-79
2021/08/07 08:37:37;;;;;;;7.67;2.27;;;;;;;28.01;35.42;99355.44;1726856;81;21089;-80
2021/08/07 08:40:06;;;;;;;3.98;2.37;;;;;;;27.82;35.67;99356.30;1726576;82;21608;-79
2021/08/07 08:42:34;;;;;;;2.98;2.05;;;;;;;28.04;36.16;99342.88;1722449;82;21569;-81
2021/08/07 08:45:00;;;;;;;3.98;2.10;;;;;;;28.26;35.78;99337.53;1713266;82;21031;-80
2021/08/07 08:47:27;;;;;;;2.47;1.67;;;;;;;28.68;35.82;99341.34;1707870;82;21623;-81
2021/08/07 08:49:55;;;;;;;4.03;2.00;;;;;;;29.02;32.08;99341.45;1658830;86;21010;-80
2021/08/07 08:52:24;;;;;;;7.20;2.00;;;;;;;28.51;32.85;99340.23;1656469;86;21120;-79
2021/08/07 08:54:53;;;;;;;2.75;1.77;;;;;;;28.22;33.96;99338.41;1715234;82;21943;-78
2021/08/07 09:10:08;;;;;;;2.95;1.50;;;;;;;28.70;32.22;99346.05;1821503;77;22723;-77
2021/08/07 09:12:46;;;;;;;4.03;1.70;;;;;;;29.13;30.98;99342.00;1786354;79;21036;-76
2021/08/07 09:15:30;;;;;;;;;;;;;;;29.12;31.06;99340.30;1794125;79;20993;-77
2021/08/07 09:18:15;;;;;;;3.95;1.65;;;;;;;29.11;30.29;99354.91;1779362;79;20133;-86
2021/08/07 09:20:47;;;;;;;2.17;1.60;;;;;;;29.17;31.73;99347.32;1777845;79;21123;-78
2021/08/07 09:23:16;;;;;;;2.30;1.55;;;;;;;29.02;32.01;99346.87;1779066;80;21089;-80
2021/08/07 09:25:45;;;;;;;3.80;1.90;;;;;;;28.95;31.04;99345.98;1758663;80;20992;-79
2021/08/07 09:28:12;;;;;;;2.33;1.50;;;;;;;29.15;31.92;99342.12;1754912;80;21699;-78
2021/08/07 09:30:42;;;;;;;1.82;1.32;;;;;;;29.50;30.41;99335.38;1781426;80;21040;-79
2021/08/07 09:33:15;;;;;;;1.72;1.35;;;;;;;29.71;29.85;99337.20;1763423;81;21016;-78
2021/08/07 09:35:45;;;;;;;5.22;1.70;;;;;;;29.74;30.86;99346.81;1762703;81;21198;-77
2021/08/07 09:38:29;;;;;;;2.00;1.80;;;;;;;29.93;30.85;99346.59;1784818;79;21037;-79
2021/08/07 09:41:06;;;;;;;2.08;1.80;;;;;;;30.15;30.66;99346.80;1781647;79;21149;-78
2021/08/07 09:43:49;;;;;;;2.80;1.60;;;;;;;30.42;30.03;99331.99;1774421;79;21058;-80
2021/08/07 09:46:24;;;;;;;3.62;1.52;;;;;;;30.57;29.40;99336.71;1774879;80;21088;-79
2021/08/07 09:48:59;;;;;;;2.20;1.70;;;;;;;30.45;30.14;99322.06;1778591;80;21123;-77
2021/08/07 09:51:36;;;;;;;5.35;1.77;;;;;;;30.13;30.59;99340.73;1780300;80;21076;-78
2021/08/07 09:54:22;;;;;;;7.55;1.50;;;;;;;30.03;30.51;99353.86;1778034;80;21867;-78
2021/08/07 09:56:55;;;;;;;4.80;1.80;;;;;;;29.90;30.38;99355.45;1777630;80;21591;-77
2021/08/07 09:59:30;;;;;;;2.42;1.42;;;;;;;29.61;31.12;99357.02;1779600;79;21081;-77
2021/08/07 10:01:58;;;;;;;6.28;1.80;;;;;;;29.63;31.02;99367.16;1744413;80;21048;-77
2021/08/07 10:04:39;;;;;;;2.17;1.40;;;;;;;29.78;30.99;99362.49;1776358;80;21005;-76
2021/08/07 10:07:08;;;;;;;2.90;1.40;;;;;;;30.06;30.45;99367.02;1735393;80;21577;-78
2021/08/07 10:09:38;;;;;;;3.77;1.50;;;;;;;30.21;30.41;99377.75;1750923;80;21030;-79
2021/08/07 10:12:12;;;;;;;2.35;1.50;;;;;;;30.08;30.92;99382.59;1688020;84;21061;-79
2021/08/07 10:14:42;;;;;;;4.70;1.82;;;;;;;29.79;30.61;99388.58;1687373;84;21518;-79
2021/08/07 10:17:13;;;;;;;3.55;1.90;;;;;;;29.81;30.65;99385.67;1686945;84;21631;-79
2021/08/07 10:19:43;;;;;;;4.20;1.67;;;;;;;29.65;31.00;99390.86;1694528;84;21081;-81
2021/08/07 10:22:13;;;;;;;2.85;2.00;;;;;;;29.48;30.86;99388.45;1687597;84;21182;-79
2021/08/07 10:24:44;;;;;;;2.87;1.80;;;;;;;29.52;30.55;99389.41;1695119;84;21537;-79
2021/08/07 10:27:13;;;;;;;3.72;2.02;;;;;;;29.64;31.37;99396.81;1699428;84;21105;-78
2021/08/07 10:29:45;;;;;;;6.80;2.30;;;;;;;29.64;31.65;99400.05;1682490;84;21105;-78
2021/08/07 10:32:15;;;;;;;8.08;2.40;;;;;;;29.63;31.86;99403.30;1687156;84;21872;-79
2021/08/07 10:34:46;;;;;;;3.00;1.98;;;;;;;29.31;32.74;99399.30;1703247;84;21129;-77
2021/08/07 10:37:13;;;;;;;3.02;1.90;;;;;;;29.05;32.75;99403.39;1725383;81;21071;-79
2021/08/07 10:39:41;;;;;;;4.33;1.82;;;;;;;29.06;33.20;99400.19;1709964;82;21058;-75
2021/08/07 10:42:08;;;;;;;3.90;1.80;;;;;;;28.88;33.07;99410.64;1684664;84;21086;-75
2021/08/07 10:44:35;;;;;;;1.80;1.37;;;;;;;28.81;33.61;99407.86;1708827;83;21094;-78
2021/08/07 10:47:02;;;;;;;2.40;1.30;;;;;;;29.12;32.19;99409.42;1697717;83;20982;-76
2021/08/07 10:49:38;;;;;;;1.60;1.17;;;;;;;29.44;31.95;99408.86;1707991;77;21109;-77
2021/08/07 10:52:32;;;;;;;1.92;1.30;;;;;;;29.71;31.47;99404.20;1694124;83;21073;-76
2021/08/07 10:54:58;;;;;;;2.12;1.12;;;;;;;30.01;31.31;99416.48;1701677;83;21053;-77
2021/08/07 10:57:44;;;;;;;2.70;1.35;;;;;;;30.22;30.65;99419.63;1701026;83;21172;-78
2021/08/07 11:00:20;;;;;;;2.60;1.15;;;;;;;30.21;31.60;99427.46;1684653;85;21048;-78
2021/08/07 11:02:47;;;;;;;1.00;0.90;;;;;;;29.99;30.87;99428.59;1690720;83;21052;-77
2021/08/07 11:05:14;;;;;;;2.35;1.10;;;;;;;29.61;31.19;99431.63;1692859;83;21088;-80
2021/08/07 11:07:41;;;;;;;1.50;1.10;;;;;;;29.45;31.09;99430.91;1650180;85;21136;-80
2021/08/07 11:10:14;;;;;;;1.00;0.82;;;;;;;29.36;32.31;99435.31;1705373;82;22148;-79
2021/08/07 11:12:45;;;;;;;3.60;1.07;;;;;;;29.39;32.35;99431.67;1761376;80;21022;-77
2021/08/07 11:15:34;;;;;;;2.60;1.20;;;;;;;29.37;32.17;99428.84;1773094;80;21645;-79
2021/08/07 11:18:24;;;;;;;2.45;0.90;;;;;;;29.54;32.14;99427.53;1762474;80;21053;-79
2021/08/07 11:20:52;;;;;;;2.22;0.93;;;;;;;29.93;31.44;99426.66;1753900;80;21092;-79
2021/08/07 11:23:19;;;;;;;3.00;1.10;;;;;;;30.33;30.83;99435.08;1764944;79;21933;-77
2021/08/07 11:25:50;;;;;;;4.60;0.90;;;;;;;30.58;29.85;99436.74;1762238;80;21579;-78
2021/08/07 11:28:19;;;;;;;2.10;1.00;;;;;;;30.46;29.73;99435.97;1771010;80;21635;-79
2021/08/07 11:30:46;;;;;;;1.35;0.98;;;;;;;30.40;30.00;99437.30;1758322;80;21555;-79
2021/08/07 11:33:18;;;;;;;2.35;0.88;;;;;;;30.44;30.31;99437.22;1762639;80;21088;-78
2021/08/07 11:35:51;;;;;;;2.85;1.15;;;;;;;30.38;29.61;99432.58;1766340;80;21052;-78
2021/08/07 11:38:23;;;;;;;3.58;0.90;;;;;;;30.13;29.89;99429.50;1759015;80;21085;-79
2021/08/07 11:40:56;;;;;;;1.80;0.82;;;;;;;29.94;30.42;99420.21;1759094;80;21678;-78
2021/08/07 11:43:34;;;;;;;2.83;0.80;;;;;;;29.90;30.72;99426.02;1745417;82;21578;-75
2021/08/07 11:46:07;;;;;;;1.60;0.90;;;;;;;29.83;30.10;99419.72;1746090;82;21048;-77
2021/08/07 11:48:41;;;;;;;2.47;1.10;;;;;;;29.63;30.48;99421.42;1745485;82;21124;-77
2021/08/07 11:51:15;;;;;;;2.27;0.82;;;;;;;29.25;31.34;99427.18;1749740;80;21603;-77
2021/08/07 11:53:43;;;;;;;1.85;0.80;;;;;;;29.07;32.06;99425.75;1774589;80;21638;-76
2021/08/07 11:56:13;;;;;;;1.77;1.40;;;;;;;29.09;32.10;99420.67;1754574;80;21033;-78